sensor_id;sensor_type;location;lat;lon;timestamp;P1;durP1;ratioP1;P2;durP2;ratioP2
7645;SDS011;3864;48.180;14.178;2023-08-07T00:00:19;3.53;;;1.70;;
7645;SDS011;3864;48.180;14.178;2023-08-07T00:02:46;2.30;;;1.48;;
7645;SDS011;3864;48.180;14.178;2023-08-07T00:05:13;2.22;;;1.40;;
7645;SDS011;3864;48.180;14.178;2023-08-07T00:07:41;1.85;;;1.40;;
7645;SDS011;3864;48.180;14.178;2023-08-07T00:10:10;2.28;;;1.40;;
7645;SDS011;3864;48.180;14.178;2023-08-07T00:12:38;3.60;;;1.75;;
7645;SDS011;3864;48.180;14.178;2023-08-07T00:15:06;2.17;;;1.40;;
7645;SDS011;3864;48.180;14.178;2023-08-07T00:17:33;2.20;;;1.42;;
7645;SDS011;3864;48.180;14.178;2023-08-07T00:20:00;2.58;;;1.48;;
7645;SDS011;3864;48.180;14.178;2023-08-07T00:22:27;2.05;;;1.40;;
7645;SDS011;3864;48.180;14.178;2023-08-07T00:24:54;2.40;;;1.40;;
7645;SDS011;3864;48.180;14.178;2023-08-07T00:27:23;2.25;;;1.50;;
7645;SDS011;3864;48.180;14.178;2023-08-07T00:29:50;1.65;;;1.27;;
7645;SDS011;3864;48.180;14.178;2023-08-07T00:32:17;3.58;;;1.67;;
7645;SDS011;3864;48.180;14.178;2023-08-07T00:34:44;2.70;;;1.60;;
7645;SDS011;3864;48.180;14.178;2023-08-07T00:37:11;3.08;;;1.52;;
7645;SDS011;3864;48.180;14.178;2023-08-07T00:39:38;2.20;;;1.40;;
7645;SDS011;3864;48.180;14.178;2023-08-07T00:42:05;2.63;;;1.60;;
7645;SDS011;3864;48.180;14.178;2023-08-07T00:44:34;2.90;;;1.60;;
7645;SDS011;3864;48.180;14.178;2023-08-07T00:47:01;3.83;;;1.63;;
7645;SDS011;3864;48.180;14.178;2023-08-07T00:49:29;2.75;;;1.52;;
7645;SDS011;3864;48.180;14.178;2023-08-07T00:51:56;3.38;;;1.70;;
7645;SDS011;3864;48.180;14.178;2023-08-07T00:54:23;3.55;;;1.70;;
7645;SDS011;3864;48.180;14.178;2023-08-07T00:56:52;3.35;;;1.88;;
7645;SDS011;3864;48.180;14.178;2023-08-07T00:59:19;2.85;;;1.60;;
7645;SDS011;3864;48.180;14.178;2023-08-07T01:01:48;3.08;;;1.80;;
7645;SDS011;3864;48.180;14.178;2023-08-07T01:04:15;4.55;;;1.85;;
7645;SDS011;3864;48.180;14.178;2023-08-07T01:06:43;2.97;;;1.67;;
7645;SDS011;3864;48.180;14.178;2023-08-07T01:09:10;2.72;;;1.42;;
7645;SDS011;3864;48.180;14.178;2023-08-07T01:11:39;2.05;;;1.40;;
7645;SDS011;3864;48.180;14.178;2023-08-07T01:14:13;2.60;;;1.30;;
7645;SDS011;3864;48.180;14.178;2023-08-07T01:19:23;2.70;;;1.73;;
7645;SDS011;3864;48.180;14.178;2023-08-07T01:21:58;2.25;;;1.42;;
7645;SDS011;3864;48.180;14.178;2023-08-07T01:24:31;2.13;;;1.50;;
7645;SDS011;3864;48.180;14.178;2023-08-07T01:27:00;2.92;;;1.55;;
7645;SDS011;3864;48.180;14.178;2023-08-07T01:29:32;2.35;;;1.42;;
7645;SDS011;3864;48.180;14.178;2023-08-07T01:32:05;3.40;;;1.50;;
7645;SDS011;3864;48.180;14.178;2023-08-07T01:34:35;3.03;;;1.83;;
7645;SDS011;3864;48.180;14.178;2023-08-07T01:37:06;2.55;;;1.48;;
7645;SDS011;3864;48.180;14.178;2023-08-07T01:39:35;3.33;;;1.77;;
7645;SDS011;3864;48.180;14.178;2023-08-07T01:42:03;2.75;;;1.65;;
7645;SDS011;3864;48.180;14.178;2023-08-07T01:44:31;2.50;;;1.60;;
7645;SDS011;3864;48.180;14.178;2023-08-07T01:46:58;3.45;;;1.70;;
7645;SDS011;3864;48.180;14.178;2023-08-07T01:49:26;2.60;;;1.50;;
7645;SDS011;3864;48.180;14.178;2023-08-07T01:51:53;2.67;;;1.73;;
7645;SDS011;3864;48.180;14.178;2023-08-07T01:54:21;2.50;;;1.50;;
7645;SDS011;3864;48.180;14.178;2023-08-07T01:56:47;2.47;;;1.27;;
7645;SDS011;3864;48.180;14.178;2023-08-07T01:59:14;2.55;;;1.48;;
7645;SDS011;3864;48.180;14.178;2023-08-07T02:01:41;3.30;;;1.60;;
7645;SDS011;3864;48.180;14.178;2023-08-07T02:04:08;2.35;;;1.50;;
7645;SDS011;3864;48.180;14.178;2023-08-07T02:06:35;3.95;;;1.60;;
7645;SDS011;3864;48.180;14.178;2023-08-07T02:09:02;2.28;;;1.40;;
7645;SDS011;3864;48.180;14.178;2023-08-07T02:11:31;2.88;;;1.50;;
7645;SDS011;3864;48.180;14.178;2023-08-07T02:13:58;3.45;;;1.50;;
7645;SDS011;3864;48.180;14.178;2023-08-07T02:16:25;2.33;;;1.42;;
7645;SDS011;3864;48.180;14.178;2023-08-07T02:18:52;2.45;;;1.60;;
7645;SDS011;3864;48.180;14.178;2023-08-07T02:21:19;2.35;;;1.35;;
7645;SDS011;3864;48.180;14.178;2023-08-07T02:23:46;3.00;;;1.58;;
7645;SDS011;3864;48.180;14.178;2023-08-07T02:26:13;2.63;;;1.52;;
7645;SDS011;3864;48.180;14.178;2023-08-07T02:28:42;4.85;;;1.77;;
7645;SDS011;3864;48.180;14.178;2023-08-07T02:31:09;2.47;;;1.52;;
7645;SDS011;3864;48.180;14.178;2023-08-07T02:33:36;2.20;;;1.65;;
7645;SDS011;3864;48.180;14.178;2023-08-07T02:36:03;3.40;;;1.50;;
7645;SDS011;3864;48.180;14.178;2023-08-07T02:38:30;2.00;;;1.35;;
7645;SDS011;3864;48.180;14.178;2023-08-07T02:40:57;3.97;;;1.40;;
7645;SDS011;3864;48.180;14.178;2023-08-07T02:43:24;2.20;;;1.58;;
7645;SDS011;3864;48.180;14.178;2023-08-07T02:45:55;2.33;;;1.40;;
7645;SDS011;3864;48.180;14.178;2023-08-07T02:48:22;3.55;;;1.70;;
7645;SDS011;3864;48.180;14.178;2023-08-07T02:50:49;2.45;;;1.60;;
7645;SDS011;3864;48.180;14.178;2023-08-07T02:53:16;2.38;;;1.50;;
7645;SDS011;3864;48.180;14.178;2023-08-07T02:55:43;2.72;;;1.70;;
7645;SDS011;3864;48.180;14.178;2023-08-07T02:58:11;2.53;;;1.50;;
7645;SDS011;3864;48.180;14.178;2023-08-07T03:00:38;3.15;;;1.50;;
7645;SDS011;3864;48.180;14.178;2023-08-07T03:03:06;2.97;;;1.75;;
7645;SDS011;3864;48.180;14.178;2023-08-07T03:05:33;2.67;;;1.50;;
7645;SDS011;3864;48.180;14.178;2023-08-07T03:08:00;2.20;;;1.60;;
7645;SDS011;3864;48.180;14.178;2023-08-07T03:10:27;2.95;;;1.60;;
7645;SDS011;3864;48.180;14.178;2023-08-07T03:12:54;2.67;;;1.70;;
7645;SDS011;3864;48.180;14.178;2023-08-07T03:15:21;5.20;;;1.58;;
7645;SDS011;3864;48.180;14.178;2023-08-07T03:17:48;2.50;;;1.70;;
7645;SDS011;3864;48.180;14.178;2023-08-07T03:20:17;2.67;;;1.63;;
7645;SDS011;3864;48.180;14.178;2023-08-07T03:22:44;4.40;;;1.60;;
7645;SDS011;3864;48.180;14.178;2023-08-07T03:25:11;3.30;;;1.50;;
7645;SDS011;3864;48.180;14.178;2023-08-07T03:27:38;2.92;;;1.88;;
7645;SDS011;3864;48.180;14.178;2023-08-07T03:30:05;3.22;;;1.67;;
7645;SDS011;3864;48.180;14.178;2023-08-07T03:32:33;3.40;;;1.60;;
7645;SDS011;3864;48.180;14.178;2023-08-07T03:35:00;2.78;;;1.50;;
7645;SDS011;3864;48.180;14.178;2023-08-07T03:37:29;5.30;;;1.85;;
7645;SDS011;3864;48.180;14.178;2023-08-07T03:39:56;2.63;;;1.60;;
7645;SDS011;3864;48.180;14.178;2023-08-07T03:42:23;2.78;;;1.80;;
7645;SDS011;3864;48.180;14.178;2023-08-07T03:44:50;2.35;;;1.40;;
7645;SDS011;3864;48.180;14.178;2023-08-07T03:47:17;3.00;;;1.55;;
7645;SDS011;3864;48.180;14.178;2023-08-07T03:49:44;2.95;;;1.50;;
7645;SDS011;3864;48.180;14.178;2023-08-07T03:52:11;2.10;;;1.45;;
7645;SDS011;3864;48.180;14.178;2023-08-07T03:54:40;3.67;;;1.80;;
7645;SDS011;3864;48.180;14.178;2023-08-07T03:57:07;3.10;;;1.60;;
7645;SDS011;3864;48.180;14.178;2023-08-07T03:59:35;2.78;;;1.50;;
7645;SDS011;3864;48.180;14.178;2023-08-07T04:02:03;5.35;;;2.05;;
7645;SDS011;3864;48.180;14.178;2023-08-07T04:04:30;3.28;;;1.60;;
7645;SDS011;3864;48.180;14.178;2023-08-07T04:06:58;4.03;;;1.48;;
7645;SDS011;3864;48.180;14.178;2023-08-07T04:09:25;3.30;;;1.70;;
7645;SDS011;3864;48.180;14.178;2023-08-07T04:11:53;4.00;;;1.55;;
7645;SDS011;3864;48.180;14.178;2023-08-07T04:14:21;2.90;;;1.52;;
7645;SDS011;3864;48.180;14.178;2023-08-07T04:16:48;6.07;;;1.75;;
7645;SDS011;3864;48.180;14.178;2023-08-07T04:19:16;2.28;;;1.38;;
7645;SDS011;3864;48.180;14.178;2023-08-07T04:21:43;2.33;;;1.27;;
7645;SDS011;3864;48.180;14.178;2023-08-07T04:24:11;2.58;;;1.52;;
7645;SDS011;3864;48.180;14.178;2023-08-07T04:26:38;3.45;;;1.98;;
7645;SDS011;3864;48.180;14.178;2023-08-07T04:29:07;2.65;;;1.40;;
7645;SDS011;3864;48.180;14.178;2023-08-07T04:31:34;3.88;;;1.35;;
7645;SDS011;3864;48.180;14.178;2023-08-07T04:34:01;2.17;;;1.30;;
7645;SDS011;3864;48.180;14.178;2023-08-07T04:36:28;2.10;;;1.30;;
7645;SDS011;3864;48.180;14.178;2023-08-07T04:38:55;2.45;;;1.30;;
7645;SDS011;3864;48.180;14.178;2023-08-07T04:41:21;2.95;;;1.30;;
7645;SDS011;3864;48.180;14.178;2023-08-07T04:43:49;1.88;;;1.13;;
7645;SDS011;3864;48.180;14.178;2023-08-07T04:46:18;1.95;;;1.40;;
7645;SDS011;3864;48.180;14.178;2023-08-07T04:48:45;2.10;;;1.48;;
7645;SDS011;3864;48.180;14.178;2023-08-07T04:51:13;2.15;;;1.33;;
7645;SDS011;3864;48.180;14.178;2023-08-07T04:53:40;2.72;;;1.45;;
7645;SDS011;3864;48.180;14.178;2023-08-07T04:56:07;3.17;;;1.60;;
7645;SDS011;3864;48.180;14.178;2023-08-07T04:58:34;1.92;;;1.35;;
7645;SDS011;3864;48.180;14.178;2023-08-07T05:01:01;2.70;;;1.38;;
7645;SDS011;3864;48.180;14.178;2023-08-07T05:03:30;3.40;;;1.40;;
7645;SDS011;3864;48.180;14.178;2023-08-07T05:05:58;3.60;;;2.33;;
7645;SDS011;3864;48.180;14.178;2023-08-07T05:08:25;2.55;;;1.50;;
7645;SDS011;3864;48.180;14.178;2023-08-07T05:10:52;3.80;;;1.52;;
7645;SDS011;3864;48.180;14.178;2023-08-07T05:13:19;2.78;;;1.50;;
7645;SDS011;3864;48.180;14.178;2023-08-07T05:15:46;2.13;;;1.40;;
7645;SDS011;3864;48.180;14.178;2023-08-07T05:18:14;4.55;;;2.60;;
7645;SDS011;3864;48.180;14.178;2023-08-07T05:20:42;4.60;;;1.60;;
7645;SDS011;3864;48.180;14.178;2023-08-07T05:23:10;2.80;;;1.75;;
7645;SDS011;3864;48.180;14.178;2023-08-07T05:25:37;2.78;;;1.67;;
7645;SDS011;3864;48.180;14.178;2023-08-07T05:28:04;2.75;;;1.60;;
7645;SDS011;3864;48.180;14.178;2023-08-07T05:30:31;3.15;;;1.50;;
7645;SDS011;3864;48.180;14.178;2023-08-07T05:32:58;2.65;;;1.65;;
7645;SDS011;3864;48.180;14.178;2023-08-07T05:35:25;3.13;;;1.75;;
7645;SDS011;3864;48.180;14.178;2023-08-07T05:37:54;3.83;;;2.00;;
7645;SDS011;3864;48.180;14.178;2023-08-07T05:40:21;5.03;;;2.05;;
7645;SDS011;3864;48.180;14.178;2023-08-07T05:42:48;3.40;;;1.80;;
7645;SDS011;3864;48.180;14.178;2023-08-07T05:45:16;2.67;;;1.95;;
7645;SDS011;3864;48.180;14.178;2023-08-07T05:47:43;3.72;;;1.95;;
7645;SDS011;3864;48.180;14.178;2023-08-07T05:50:10;3.20;;;1.80;;
7645;SDS011;3864;48.180;14.178;2023-08-07T05:52:37;2.90;;;1.80;;
7645;SDS011;3864;48.180;14.178;2023-08-07T05:55:07;3.78;;;1.70;;
7645;SDS011;3864;48.180;14.178;2023-08-07T05:57:34;2.92;;;1.80;;
7645;SDS011;3864;48.180;14.178;2023-08-07T06:00:01;3.42;;;2.20;;
7645;SDS011;3864;48.180;14.178;2023-08-07T06:02:29;3.20;;;1.80;;
7645;SDS011;3864;48.180;14.178;2023-08-07T06:04:56;2.97;;;1.88;;
7645;SDS011;3864;48.180;14.178;2023-08-07T06:07:23;3.08;;;1.83;;
7645;SDS011;3864;48.180;14.178;2023-08-07T06:09:50;3.25;;;2.50;;
7645;SDS011;3864;48.180;14.178;2023-08-07T06:12:19;3.53;;;2.00;;
7645;SDS011;3864;48.180;14.178;2023-08-07T06:14:46;3.90;;;1.80;;
7645;SDS011;3864;48.180;14.178;2023-08-07T06:17:20;2.47;;;1.92;;
7645;SDS011;3864;48.180;14.178;2023-08-07T06:19:47;4.13;;;1.80;;
7645;SDS011;3864;48.180;14.178;2023-08-07T06:22:14;3.25;;;1.92;;
7645;SDS011;3864;48.180;14.178;2023-08-07T06:24:42;3.63;;;2.00;;
7645;SDS011;3864;48.180;14.178;2023-08-07T06:27:09;3.72;;;2.00;;
7645;SDS011;3864;48.180;14.178;2023-08-07T06:29:38;3.75;;;1.85;;
7645;SDS011;3864;48.180;14.178;2023-08-07T06:32:05;2.85;;;1.70;;
7645;SDS011;3864;48.180;14.178;2023-08-07T06:34:35;3.42;;;2.13;;
7645;SDS011;3864;48.180;14.178;2023-08-07T06:37:03;2.58;;;1.65;;
7645;SDS011;3864;48.180;14.178;2023-08-07T06:39:30;3.60;;;1.98;;
7645;SDS011;3864;48.180;14.178;2023-08-07T06:41:57;2.63;;;1.90;;
7645;SDS011;3864;48.180;14.178;2023-08-07T06:44:25;5.05;;;2.00;;
7645;SDS011;3864;48.180;14.178;2023-08-07T06:46:53;3.08;;;1.80;;
7645;SDS011;3864;48.180;14.178;2023-08-07T06:49:20;2.65;;;1.70;;
7645;SDS011;3864;48.180;14.178;2023-08-07T06:51:48;3.03;;;1.75;;
7645;SDS011;3864;48.180;14.178;2023-08-07T06:54:15;2.53;;;1.80;;
7645;SDS011;3864;48.180;14.178;2023-08-07T06:56:42;3.33;;;1.80;;
7645;SDS011;3864;48.180;14.178;2023-08-07T06:59:09;3.42;;;1.65;;
7645;SDS011;3864;48.180;14.178;2023-08-07T07:01:36;3.85;;;1.88;;
7645;SDS011;3864;48.180;14.178;2023-08-07T07:04:05;3.22;;;1.85;;
7645;SDS011;3864;48.180;14.178;2023-08-07T07:06:33;2.90;;;1.77;;
7645;SDS011;3864;48.180;14.178;2023-08-07T07:09:00;2.67;;;1.90;;
7645;SDS011;3864;48.180;14.178;2023-08-07T07:11:27;2.45;;;1.70;;
7645;SDS011;3864;48.180;14.178;2023-08-07T07:13:54;2.90;;;1.73;;
7645;SDS011;3864;48.180;14.178;2023-08-07T07:16:21;3.28;;;1.95;;
7645;SDS011;3864;48.180;14.178;2023-08-07T07:18:48;3.42;;;1.95;;
7645;SDS011;3864;48.180;14.178;2023-08-07T07:21:17;4.25;;;1.85;;
7645;SDS011;3864;48.180;14.178;2023-08-07T07:23:45;3.15;;;1.95;;
7645;SDS011;3864;48.180;14.178;2023-08-07T07:26:12;3.67;;;1.83;;
7645;SDS011;3864;48.180;14.178;2023-08-07T07:28:39;3.65;;;2.00;;
7645;SDS011;3864;48.180;14.178;2023-08-07T07:31:06;3.28;;;1.92;;
7645;SDS011;3864;48.180;14.178;2023-08-07T07:33:36;3.80;;;2.78;;
7645;SDS011;3864;48.180;14.178;2023-08-07T07:36:04;3.95;;;2.28;;
7645;SDS011;3864;48.180;14.178;2023-08-07T07:38:33;4.03;;;2.00;;
7645;SDS011;3864;48.180;14.178;2023-08-07T07:41:00;4.07;;;2.05;;
7645;SDS011;3864;48.180;14.178;2023-08-07T07:43:27;3.58;;;1.98;;
7645;SDS011;3864;48.180;14.178;2023-08-07T07:45:54;2.90;;;1.98;;
7645;SDS011;3864;48.180;14.178;2023-08-07T07:48:21;3.70;;;1.95;;
7645;SDS011;3864;48.180;14.178;2023-08-07T07:50:48;3.05;;;1.90;;
7645;SDS011;3864;48.180;14.178;2023-08-07T07:53:18;3.33;;;1.77;;
7645;SDS011;3864;48.180;14.178;2023-08-07T07:55:48;4.28;;;2.20;;
7645;SDS011;3864;48.180;14.178;2023-08-07T07:58:15;3.10;;;2.13;;
7645;SDS011;3864;48.180;14.178;2023-08-07T08:00:42;3.35;;;2.00;;
7645;SDS011;3864;48.180;14.178;2023-08-07T08:03:09;5.68;;;2.45;;
7645;SDS011;3864;48.180;14.178;2023-08-07T08:05:37;3.90;;;2.20;;
7645;SDS011;3864;48.180;14.178;2023-08-07T08:08:04;5.38;;;2.20;;
7645;SDS011;3864;48.180;14.178;2023-08-07T08:10:32;3.40;;;2.03;;
7645;SDS011;3864;48.180;14.178;2023-08-07T08:13:02;3.47;;;2.10;;
7645;SDS011;3864;48.180;14.178;2023-08-07T08:15:29;3.60;;;2.22;;
7645;SDS011;3864;48.180;14.178;2023-08-07T08:17:56;3.10;;;2.20;;
7645;SDS011;3864;48.180;14.178;2023-08-07T08:20:23;4.28;;;2.15;;
7645;SDS011;3864;48.180;14.178;2023-08-07T08:22:50;3.40;;;2.00;;
7645;SDS011;3864;48.180;14.178;2023-08-07T08:25:17;4.43;;;2.33;;
7645;SDS011;3864;48.180;14.178;2023-08-07T08:27:44;4.07;;;2.15;;
7645;SDS011;3864;48.180;14.178;2023-08-07T08:30:14;5.25;;;2.20;;
7645;SDS011;3864;48.180;14.178;2023-08-07T08:32:41;4.15;;;2.20;;
7645;SDS011;3864;48.180;14.178;2023-08-07T08:35:08;3.35;;;2.00;;
7645;SDS011;3864;48.180;14.178;2023-08-07T08:37:36;3.85;;;2.20;;
7645;SDS011;3864;48.180;14.178;2023-08-07T08:40:04;4.22;;;2.28;;
7645;SDS011;3864;48.180;14.178;2023-08-07T08:42:33;3.70;;;2.60;;
7645;SDS011;3864;48.180;14.178;2023-08-07T08:45:00;3.38;;;2.30;;
7645;SDS011;3864;48.180;14.178;2023-08-07T08:47:31;5.18;;;2.42;;
7645;SDS011;3864;48.180;14.178;2023-08-07T08:50:00;3.78;;;2.28;;
7645;SDS011;3864;48.180;14.178;2023-08-07T08:52:30;5.93;;;2.47;;
7645;SDS011;3864;48.180;14.178;2023-08-07T08:54:58;4.18;;;2.38;;
7645;SDS011;3864;48.180;14.178;2023-08-07T08:57:25;4.60;;;2.53;;
7645;SDS011;3864;48.180;14.178;2023-08-07T08:59:53;3.85;;;2.70;;
7645;SDS011;3864;48.180;14.178;2023-08-07T09:02:22;5.22;;;2.60;;
7645;SDS011;3864;48.180;14.178;2023-08-07T09:04:51;4.32;;;2.45;;
7645;SDS011;3864;48.180;14.178;2023-08-07T09:07:18;3.35;;;2.30;;
7645;SDS011;3864;48.180;14.178;2023-08-07T09:09:47;3.83;;;2.45;;
7645;SDS011;3864;48.180;14.178;2023-08-07T09:12:19;4.32;;;2.28;;
7645;SDS011;3864;48.180;14.178;2023-08-07T09:14:47;5.72;;;2.45;;
7645;SDS011;3864;48.180;14.178;2023-08-07T09:17:19;3.80;;;2.20;;
7645;SDS011;3864;48.180;14.178;2023-08-07T09:19:52;5.00;;;2.28;;
7645;SDS011;3864;48.180;14.178;2023-08-07T09:22:19;3.95;;;2.42;;
7645;SDS011;3864;48.180;14.178;2023-08-07T09:24:46;6.85;;;2.40;;
7645;SDS011;3864;48.180;14.178;2023-08-07T09:27:15;3.72;;;2.20;;
7645;SDS011;3864;48.180;14.178;2023-08-07T09:29:43;4.03;;;2.63;;
7645;SDS011;3864;48.180;14.178;2023-08-07T09:32:11;5.80;;;2.40;;
7645;SDS011;3864;48.180;14.178;2023-08-07T09:34:39;3.42;;;2.50;;
7645;SDS011;3864;48.180;14.178;2023-08-07T09:37:08;4.05;;;2.20;;
7645;SDS011;3864;48.180;14.178;2023-08-07T09:39:35;4.22;;;2.30;;
7645;SDS011;3864;48.180;14.178;2023-08-07T09:42:03;3.65;;;2.53;;
7645;SDS011;3864;48.180;14.178;2023-08-07T09:44:34;2.80;;;2.00;;
7645;SDS011;3864;48.180;14.178;2023-08-07T09:47:11;6.10;;;2.55;;
7645;SDS011;3864;48.180;14.178;2023-08-07T09:49:39;3.75;;;2.25;;
7645;SDS011;3864;48.180;14.178;2023-08-07T09:52:08;4.03;;;2.28;;
7645;SDS011;3864;48.180;14.178;2023-08-07T09:54:38;3.90;;;2.63;;
7645;SDS011;3864;48.180;14.178;2023-08-07T09:57:05;2.90;;;2.20;;
7645;SDS011;3864;48.180;14.178;2023-08-07T09:59:33;5.22;;;2.40;;
7645;SDS011;3864;48.180;14.178;2023-08-07T10:02:01;4.05;;;2.30;;
7645;SDS011;3864;48.180;14.178;2023-08-07T10:04:29;4.22;;;2.42;;
7645;SDS011;3864;48.180;14.178;2023-08-07T10:06:56;3.17;;;2.10;;
7645;SDS011;3864;48.180;14.178;2023-08-07T10:09:25;4.82;;;2.60;;
7645;SDS011;3864;48.180;14.178;2023-08-07T10:11:53;3.58;;;2.42;;
7645;SDS011;3864;48.180;14.178;2023-08-07T10:14:21;3.33;;;2.33;;
7645;SDS011;3864;48.180;14.178;2023-08-07T10:16:49;2.92;;;2.13;;
7645;SDS011;3864;48.180;14.178;2023-08-07T10:19:17;3.47;;;2.40;;
7645;SDS011;3864;48.180;14.178;2023-08-07T10:21:44;3.00;;;2.38;;
7645;SDS011;3864;48.180;14.178;2023-08-07T10:24:12;3.40;;;2.30;;
7645;SDS011;3864;48.180;14.178;2023-08-07T10:26:44;3.80;;;2.28;;
7645;SDS011;3864;48.180;14.178;2023-08-07T10:29:13;4.82;;;2.20;;
7645;SDS011;3864;48.180;14.178;2023-08-07T10:31:42;5.72;;;2.40;;
7645;SDS011;3864;48.180;14.178;2023-08-07T10:34:11;4.47;;;2.50;;
7645;SDS011;3864;48.180;14.178;2023-08-07T10:36:38;2.88;;;2.10;;
7645;SDS011;3864;48.180;14.178;2023-08-07T10:39:06;4.43;;;2.00;;
7645;SDS011;3864;48.180;14.178;2023-08-07T10:41:38;3.10;;;2.20;;
7645;SDS011;3864;48.180;14.178;2023-08-07T10:44:17;3.78;;;2.10;;
7645;SDS011;3864;48.180;14.178;2023-08-07T10:46:49;3.80;;;2.17;;
7645;SDS011;3864;48.180;14.178;2023-08-07T10:49:30;3.28;;;2.15;;
7645;SDS011;3864;48.180;14.178;2023-08-07T10:51:58;4.35;;;2.05;;
7645;SDS011;3864;48.180;14.178;2023-08-07T10:54:28;4.22;;;2.58;;
7645;SDS011;3864;48.180;14.178;2023-08-07T10:56:55;4.30;;;2.08;;
7645;SDS011;3864;48.180;14.178;2023-08-07T10:59:27;4.53;;;2.40;;
7645;SDS011;3864;48.180;14.178;2023-08-07T11:01:57;3.97;;;2.03;;
7645;SDS011;3864;48.180;14.178;2023-08-07T11:04:26;3.22;;;1.90;;
7645;SDS011;3864;48.180;14.178;2023-08-07T11:06:53;4.43;;;2.38;;
7645;SDS011;3864;48.180;14.178;2023-08-07T11:09:21;3.10;;;1.98;;
7645;SDS011;3864;48.180;14.178;2023-08-07T11:11:49;3.58;;;1.95;;
7645;SDS011;3864;48.180;14.178;2023-08-07T11:14:16;4.10;;;2.25;;
7645;SDS011;3864;48.180;14.178;2023-08-07T11:16:47;3.85;;;1.98;;
7645;SDS011;3864;48.180;14.178;2023-08-07T11:19:15;3.75;;;2.00;;
7645;SDS011;3864;48.180;14.178;2023-08-07T11:21:44;3.15;;;1.95;;
7645;SDS011;3864;48.180;14.178;2023-08-07T11:24:12;3.50;;;1.73;;
7645;SDS011;3864;48.180;14.178;2023-08-07T11:26:42;4.00;;;2.30;;
7645;SDS011;3864;48.180;14.178;2023-08-07T11:29:10;4.50;;;2.17;;
7645;SDS011;3864;48.180;14.178;2023-08-07T11:31:42;4.63;;;2.17;;
7645;SDS011;3864;48.180;14.178;2023-08-07T11:34:11;3.03;;;1.90;;
7645;SDS011;3864;48.180;14.178;2023-08-07T11:36:40;4.13;;;2.03;;
7645;SDS011;3864;48.180;14.178;2023-08-07T11:39:08;4.32;;;1.95;;
7645;SDS011;3864;48.180;14.178;2023-08-07T11:41:35;3.70;;;2.05;;
7645;SDS011;3864;48.180;14.178;2023-08-07T11:44:02;5.05;;;1.85;;
7645;SDS011;3864;48.180;14.178;2023-08-07T11:46:30;3.67;;;2.05;;
7645;SDS011;3864;48.180;14.178;2023-08-07T11:48:57;3.95;;;2.22;;
7645;SDS011;3864;48.180;14.178;2023-08-07T11:51:27;4.05;;;2.00;;
7645;SDS011;3864;48.180;14.178;2023-08-07T11:53:54;3.47;;;1.90;;
7645;SDS011;3864;48.180;14.178;2023-08-07T11:56:24;3.50;;;2.30;;
7645;SDS011;3864;48.180;14.178;2023-08-07T11:58:52;4.85;;;1.80;;
7645;SDS011;3864;48.180;14.178;2023-08-07T12:01:19;3.95;;;2.50;;
7645;SDS011;3864;48.180;14.178;2023-08-07T12:03:51;3.28;;;2.22;;
7645;SDS011;3864;48.180;14.178;2023-08-07T12:06:20;4.50;;;1.70;;
7645;SDS011;3864;48.180;14.178;2023-08-07T12:08:49;5.75;;;2.35;;
7645;SDS011;3864;48.180;14.178;2023-08-07T12:11:20;4.90;;;2.30;;
7645;SDS011;3864;48.180;14.178;2023-08-07T12:13:47;3.78;;;1.90;;
7645;SDS011;3864;48.180;14.178;2023-08-07T12:16:14;3.92;;;2.42;;
7645;SDS011;3864;48.180;14.178;2023-08-07T12:18:43;2.80;;;2.05;;
7645;SDS011;3864;48.180;14.178;2023-08-07T12:21:15;4.30;;;2.10;;
7645;SDS011;3864;48.180;14.178;2023-08-07T12:23:44;2.92;;;2.00;;
7645;SDS011;3864;48.180;14.178;2023-08-07T12:28:46;3.15;;;2.20;;
7645;SDS011;3864;48.180;14.178;2023-08-07T12:31:14;4.25;;;2.03;;
7645;SDS011;3864;48.180;14.178;2023-08-07T12:33:42;3.63;;;1.92;;
7645;SDS011;3864;48.180;14.178;2023-08-07T12:36:09;4.60;;;2.55;;
7645;SDS011;3864;48.180;14.178;2023-08-07T12:38:38;3.17;;;2.00;;
7645;SDS011;3864;48.180;14.178;2023-08-07T12:41:05;3.63;;;2.30;;
7645;SDS011;3864;48.180;14.178;2023-08-07T12:43:34;3.35;;;2.00;;
7645;SDS011;3864;48.180;14.178;2023-08-07T12:46:01;4.20;;;2.20;;
7645;SDS011;3864;48.180;14.178;2023-08-07T12:48:28;3.90;;;2.42;;
7645;SDS011;3864;48.180;14.178;2023-08-07T12:50:55;5.95;;;3.00;;
7645;SDS011;3864;48.180;14.178;2023-08-07T12:53:22;2.95;;;1.95;;
7645;SDS011;3864;48.180;14.178;2023-08-07T12:55:49;5.28;;;2.13;;
7645;SDS011;3864;48.180;14.178;2023-08-07T12:58:17;3.42;;;2.58;;
7645;SDS011;3864;48.180;14.178;2023-08-07T13:00:49;2.78;;;2.00;;
7645;SDS011;3864;48.180;14.178;2023-08-07T13:03:16;3.83;;;1.95;;
7645;SDS011;3864;48.180;14.178;2023-08-07T13:05:43;4.18;;;1.80;;
7645;SDS011;3864;48.180;14.178;2023-08-07T13:08:10;3.53;;;2.30;;
7645;SDS011;3864;48.180;14.178;2023-08-07T13:10:41;3.47;;;1.80;;
7645;SDS011;3864;48.180;14.178;2023-08-07T13:13:08;5.40;;;1.92;;
7645;SDS011;3864;48.180;14.178;2023-08-07T13:15:35;4.65;;;2.08;;
7645;SDS011;3864;48.180;14.178;2023-08-07T13:18:04;2.95;;;2.08;;
7645;SDS011;3864;48.180;14.178;2023-08-07T13:20:31;3.90;;;2.20;;
7645;SDS011;3864;48.180;14.178;2023-08-07T13:23:01;4.63;;;2.30;;
7645;SDS011;3864;48.180;14.178;2023-08-07T13:25:31;4.93;;;4.43;;
7645;SDS011;3864;48.180;14.178;2023-08-07T13:27:58;3.15;;;2.00;;
7645;SDS011;3864;48.180;14.178;2023-08-07T13:30:26;3.80;;;2.72;;
7645;SDS011;3864;48.180;14.178;2023-08-07T13:32:54;4.45;;;2.17;;
7645;SDS011;3864;48.180;14.178;2023-08-07T13:35:25;3.85;;;2.30;;
7645;SDS011;3864;48.180;14.178;2023-08-07T13:37:52;3.00;;;2.20;;
7645;SDS011;3864;48.180;14.178;2023-08-07T13:40:20;3.35;;;2.15;;
7645;SDS011;3864;48.180;14.178;2023-08-07T13:42:47;4.68;;;2.50;;
7645;SDS011;3864;48.180;14.178;2023-08-07T13:45:14;4.75;;;2.03;;
7645;SDS011;3864;48.180;14.178;2023-08-07T13:47:41;3.22;;;2.13;;
7645;SDS011;3864;48.180;14.178;2023-08-07T13:50:09;3.85;;;2.17;;
7645;SDS011;3864;48.180;14.178;2023-08-07T13:52:39;3.25;;;1.98;;
7645;SDS011;3864;48.180;14.178;2023-08-07T13:55:07;3.47;;;2.17;;
7645;SDS011;3864;48.180;14.178;2023-08-07T13:57:35;3.15;;;2.00;;
7645;SDS011;3864;48.180;14.178;2023-08-07T14:00:02;4.28;;;2.08;;
7645;SDS011;3864;48.180;14.178;2023-08-07T14:02:30;3.42;;;2.13;;
7645;SDS011;3864;48.180;14.178;2023-08-07T14:05:01;3.67;;;2.13;;
7645;SDS011;3864;48.180;14.178;2023-08-07T14:07:29;3.72;;;2.30;;
7645;SDS011;3864;48.180;14.178;2023-08-07T14:09:57;4.25;;;1.92;;
7645;SDS011;3864;48.180;14.178;2023-08-07T14:12:24;2.78;;;1.80;;
7645;SDS011;3864;48.180;14.178;2023-08-07T14:14:52;3.60;;;1.90;;
7645;SDS011;3864;48.180;14.178;2023-08-07T14:17:19;5.90;;;2.00;;
7645;SDS011;3864;48.180;14.178;2023-08-07T14:19:46;2.65;;;1.70;;
7645;SDS011;3864;48.180;14.178;2023-08-07T14:22:13;2.65;;;1.65;;
7645;SDS011;3864;48.180;14.178;2023-08-07T14:24:40;4.07;;;2.28;;
7645;SDS011;3864;48.180;14.178;2023-08-07T14:27:09;2.97;;;1.95;;
7645;SDS011;3864;48.180;14.178;2023-08-07T14:29:36;3.47;;;1.73;;
7645;SDS011;3864;48.180;14.178;2023-08-07T14:32:04;3.08;;;1.98;;
7645;SDS011;3864;48.180;14.178;2023-08-07T14:34:31;4.38;;;2.00;;
7645;SDS011;3864;48.180;14.178;2023-08-07T14:36:58;3.28;;;1.90;;
7645;SDS011;3864;48.180;14.178;2023-08-07T14:39:25;3.60;;;1.83;;
7645;SDS011;3864;48.180;14.178;2023-08-07T14:41:52;3.20;;;1.80;;
7645;SDS011;3864;48.180;14.178;2023-08-07T14:44:22;6.03;;;2.67;;
7645;SDS011;3864;48.180;14.178;2023-08-07T14:46:49;4.45;;;1.92;;
7645;SDS011;3864;48.180;14.178;2023-08-07T14:49:16;3.33;;;1.83;;
7645;SDS011;3864;48.180;14.178;2023-08-07T14:51:43;2.53;;;1.70;;
7645;SDS011;3864;48.180;14.178;2023-08-07T14:54:10;3.10;;;2.00;;
7645;SDS011;3864;48.180;14.178;2023-08-07T14:56:37;3.45;;;1.80;;
7645;SDS011;3864;48.180;14.178;2023-08-07T14:59:04;3.58;;;1.95;;
7645;SDS011;3864;48.180;14.178;2023-08-07T15:01:32;3.20;;;1.75;;
7645;SDS011;3864;48.180;14.178;2023-08-07T15:03:59;3.63;;;1.90;;
7645;SDS011;3864;48.180;14.178;2023-08-07T15:06:27;6.13;;;2.10;;
7645;SDS011;3864;48.180;14.178;2023-08-07T15:08:54;4.55;;;1.90;;